sensor_id;sensor_type;location;lat;lon;timestamp;temperature;humidity
15107;DHT22;7654;45.308;-75.096;2023-12-07T00:02:17;-9.40;99.90
15107;DHT22;7654;45.308;-75.096;2023-12-07T00:04:50;-9.40;99.90
15107;DHT22;7654;45.308;-75.096;2023-12-07T00:07:20;-9.50;99.90
15107;DHT22;7654;45.308;-75.096;2023-12-07T00:09:51;-9.50;99.90
15107;DHT22;7654;45.308;-75.096;2023-12-07T00:12:22;-9.60;99.90
15107;DHT22;7654;45.308;-75.096;2023-12-07T00:14:53;-9.60;99.90
15107;DHT22;7654;45.308;-75.096;2023-12-07T00:17:24;-9.60;99.90
15107;DHT22;7654;45.308;-75.096;2023-12-07T00:19:56;-9.80;99.90
15107;DHT22;7654;45.308;-75.096;2023-12-07T00:22:28;-9.90;99.90
15107;DHT22;7654;45.308;-75.096;2023-12-07T00:24:58;-10.10;99.90
15107;DHT22;7654;45.308;-75.096;2023-12-07T00:27:29;-10.30;99.90
15107;DHT22;7654;45.308;-75.096;2023-12-07T00:30:00;-10.50;99.90
15107;DHT22;7654;45.308;-75.096;2023-12-07T00:32:32;-10.70;99.90
15107;DHT22;7654;45.308;-75.096;2023-12-07T00:35:05;-10.70;99.90
15107;DHT22;7654;45.308;-75.096;2023-12-07T00:37:36;-10.80;99.90
15107;DHT22;7654;45.308;-75.096;2023-12-07T00:40:07;-10.80;99.90
15107;DHT22;7654;45.308;-75.096;2023-12-07T00:42:38;-10.80;99.90
15107;DHT22;7654;45.308;-75.096;2023-12-07T00:45:09;-10.80;99.90
15107;DHT22;7654;45.308;-75.096;2023-12-07T00:47:42;-10.70;99.90
15107;DHT22;7654;45.308;-75.096;2023-12-07T00:50:15;-10.70;99.90
15107;DHT22;7654;45.308;-75.096;2023-12-07T00:52:46;-10.70;99.90
15107;DHT22;7654;45.308;-75.096;2023-12-07T00:55:17;-10.70;99.90
15107;DHT22;7654;45.308;-75.096;2023-12-07T00:57:47;-10.70;99.90
15107;DHT22;7654;45.308;-75.096;2023-12-07T01:00:18;-10.70;99.90
15107;DHT22;7654;45.308;-75.096;2023-12-07T01:02:48;-10.60;99.90
15107;DHT22;7654;45.308;-75.096;2023-12-07T01:05:21;-10.40;99.90
15107;DHT22;7654;45.308;-75.096;2023-12-07T01:07:52;-10.40;99.90
15107;DHT22;7654;45.308;-75.096;2023-12-07T01:10:22;-10.30;99.90
15107;DHT22;7654;45.308;-75.096;2023-12-07T01:12:52;-10.20;99.90
15107;DHT22;7654;45.308;-75.096;2023-12-07T01:15:23;-10.20;99.90
15107;DHT22;7654;45.308;-75.096;2023-12-07T01:17:53;-10.10;99.90
15107;DHT22;7654;45.308;-75.096;2023-12-07T01:20:25;-10.10;99.90
15107;DHT22;7654;45.308;-75.096;2023-12-07T01:22:56;-10.00;99.90
15107;DHT22;7654;45.308;-75.096;2023-12-07T01:25:26;-10.00;99.90
15107;DHT22;7654;45.308;-75.096;2023-12-07T01:27:57;-9.90;99.90
15107;DHT22;7654;45.308;-75.096;2023-12-07T01:30:27;-9.90;99.90
15107;DHT22;7654;45.308;-75.096;2023-12-07T01:32:59;-9.90;99.90
15107;DHT22;7654;45.308;-75.096;2023-12-07T01:35:34;-9.80;99.90
15107;DHT22;7654;45.308;-75.096;2023-12-07T01:38:06;-9.80;99.90
15107;DHT22;7654;45.308;-75.096;2023-12-07T01:40:37;-9.70;99.90
15107;DHT22;7654;45.308;-75.096;2023-12-07T01:43:08;-9.70;99.90
15107;DHT22;7654;45.308;-75.096;2023-12-07T01:45:38;-9.80;99.90
15107;DHT22;7654;45.308;-75.096;2023-12-07T01:48:12;-9.80;99.90
15107;DHT22;7654;45.308;-75.096;2023-12-07T01:50:46;-9.80;99.90
15107;DHT22;7654;45.308;-75.096;2023-12-07T01:53:17;-9.80;99.90
15107;DHT22;7654;45.308;-75.096;2023-12-07T01:55:48;-9.80;99.90
15107;DHT22;7654;45.308;-75.096;2023-12-07T01:58:20;-9.90;99.90
15107;DHT22;7654;45.308;-75.096;2023-12-07T02:00:52;-9.90;99.90
15107;DHT22;7654;45.308;-75.096;2023-12-07T02:03:24;-10.10;99.90
15107;DHT22;7654;45.308;-75.096;2023-12-07T02:05:58;-10.40;99.90
15107;DHT22;7654;45.308;-75.096;2023-12-07T02:08:29;-10.60;99.90
15107;DHT22;7654;45.308;-75.096;2023-12-07T02:11:01;-10.90;99.90
15107;DHT22;7654;45.308;-75.096;2023-12-07T02:13:32;-10.90;99.90
15107;DHT22;7654;45.308;-75.096;2023-12-07T02:16:12;-10.90;99.90
15107;DHT22;7654;45.308;-75.096;2023-12-07T02:18:50;-10.80;99.90
15107;DHT22;7654;45.308;-75.096;2023-12-07T02:21:30;-10.70;99.90
15107;DHT22;7654;45.308;-75.096;2023-12-07T02:24:06;-10.70;99.90
15107;DHT22;7654;45.308;-75.096;2023-12-07T02:26:39;-10.80;99.90
15107;DHT22;7654;45.308;-75.096;2023-12-07T02:29:10;-10.90;99.90
15107;DHT22;7654;45.308;-75.096;2023-12-07T02:31:41;-11.00;99.90
15107;DHT22;7654;45.308;-75.096;2023-12-07T02:34:12;-11.20;99.90
15107;DHT22;7654;45.308;-75.096;2023-12-07T02:36:44;-11.30;99.90
15107;DHT22;7654;45.308;-75.096;2023-12-07T02:39:16;-11.40;99.90
15107;DHT22;7654;45.308;-75.096;2023-12-07T02:41:50;-11.50;99.90
15107;DHT22;7654;45.308;-75.096;2023-12-07T02:44:22;-11.50;99.90
15107;DHT22;7654;45.308;-75.096;2023-12-07T02:46:53;-11.60;99.90
15107;DHT22;7654;45.308;-75.096;2023-12-07T02:49:37;-11.70;99.90
15107;DHT22;7654;45.308;-75.096;2023-12-07T02:52:08;-11.80;99.90
15107;DHT22;7654;45.308;-75.096;2023-12-07T02:54:42;-11.90;99.90
15107;DHT22;7654;45.308;-75.096;2023-12-07T02:57:15;-11.90;99.90
15107;DHT22;7654;45.308;-75.096;2023-12-07T02:59:47;-11.80;99.90
15107;DHT22;7654;45.308;-75.096;2023-12-07T03:02:17;-11.80;99.90
15107;DHT22;7654;45.308;-75.096;2023-12-07T03:04:49;-11.80;99.90
15107;DHT22;7654;45.308;-75.096;2023-12-07T03:07:22;-11.80;99.90
15107;DHT22;7654;45.308;-75.096;2023-12-07T03:09:54;-11.70;99.90
15107;DHT22;7654;45.308;-75.096;2023-12-07T03:12:27;-11.70;99.90
15107;DHT22;7654;45.308;-75.096;2023-12-07T03:14:57;-11.70;99.90
15107;DHT22;7654;45.308;-75.096;2023-12-07T03:17:28;-11.80;99.90
15107;DHT22;7654;45.308;-75.096;2023-12-07T03:20:00;-12.00;99.90
15107;DHT22;7654;45.308;-75.096;2023-12-07T03:22:32;-12.10;99.90
15107;DHT22;7654;45.308;-75.096;2023-12-07T03:25:04;-12.10;99.90
15107;DHT22;7654;45.308;-75.096;2023-12-07T03:27:36;-12.20;99.90
15107;DHT22;7654;45.308;-75.096;2023-12-07T03:30:13;-12.20;99.90
15107;DHT22;7654;45.308;-75.096;2023-12-07T03:32:44;-12.40;99.90
15107;DHT22;7654;45.308;-75.096;2023-12-07T03:35:14;-12.60;99.90
15107;DHT22;7654;45.308;-75.096;2023-12-07T03:37:45;-12.70;99.90
15107;DHT22;7654;45.308;-75.096;2023-12-07T03:40:17;-12.70;99.90
15107;DHT22;7654;45.308;-75.096;2023-12-07T03:42:51;-12.80;99.90
15107;DHT22;7654;45.308;-75.096;2023-12-07T03:45:24;-12.80;99.90
15107;DHT22;7654;45.308;-75.096;2023-12-07T03:47:54;-12.90;99.90
15107;DHT22;7654;45.308;-75.096;2023-12-07T03:50:25;-13.00;99.90
15107;DHT22;7654;45.308;-75.096;2023-12-07T03:53:05;-13.00;99.90
15107;DHT22;7654;45.308;-75.096;2023-12-07T03:55:35;-13.00;99.90
15107;DHT22;7654;45.308;-75.096;2023-12-07T03:58:08;-13.00;99.90
15107;DHT22;7654;45.308;-75.096;2023-12-07T04:00:39;-12.90;99.90
15107;DHT22;7654;45.308;-75.096;2023-12-07T04:03:10;-12.90;99.90
15107;DHT22;7654;45.308;-75.096;2023-12-07T04:05:41;-12.80;99.90
15107;DHT22;7654;45.308;-75.096;2023-12-07T04:08:12;-12.80;99.90
15107;DHT22;7654;45.308;-75.096;2023-12-07T04:10:42;-12.90;99.90
15107;DHT22;7654;45.308;-75.096;2023-12-07T04:13:15;-13.00;99.90
15107;DHT22;7654;45.308;-75.096;2023-12-07T04:15:46;-13.00;99.90
15107;DHT22;7654;45.308;-75.096;2023-12-07T04:18:17;-12.90;99.90
15107;DHT22;7654;45.308;-75.096;2023-12-07T04:20:47;-12.70;99.90
15107;DHT22;7654;45.308;-75.096;2023-12-07T04:23:17;-12.70;99.90
15107;DHT22;7654;45.308;-75.096;2023-12-07T04:25:48;-12.60;99.90
15107;DHT22;7654;45.308;-75.096;2023-12-07T04:28:20;-12.60;99.90
15107;DHT22;7654;45.308;-75.096;2023-12-07T04:30:50;-12.50;99.90
15107;DHT22;7654;45.308;-75.096;2023-12-07T04:33:21;-12.40;99.90
15107;DHT22;7654;45.308;-75.096;2023-12-07T04:35:51;-12.40;99.90
15107;DHT22;7654;45.308;-75.096;2023-12-07T04:38:22;-12.40;99.90
15107;DHT22;7654;45.308;-75.096;2023-12-07T04:40:52;-12.40;99.90
15107;DHT22;7654;45.308;-75.096;2023-12-07T04:43:24;-12.40;99.90
15107;DHT22;7654;45.308;-75.096;2023-12-07T04:45:54;-12.30;99.90
15107;DHT22;7654;45.308;-75.096;2023-12-07T04:48:24;-12.30;99.90
15107;DHT22;7654;45.308;-75.096;2023-12-07T04:50:55;-12.40;99.90
15107;DHT22;7654;45.308;-75.096;2023-12-07T04:53:26;-12.60;99.90
15107;DHT22;7654;45.308;-75.096;2023-12-07T04:55:56;-12.70;99.90
15107;DHT22;7654;45.308;-75.096;2023-12-07T04:58:28;-12.60;99.90
15107;DHT22;7654;45.308;-75.096;2023-12-07T05:00:58;-12.50;99.90
15107;DHT22;7654;45.308;-75.096;2023-12-07T05:03:29;-12.50;99.90
15107;DHT22;7654;45.308;-75.096;2023-12-07T05:06:00;-12.60;99.90
15107;DHT22;7654;45.308;-75.096;2023-12-07T05:08:30;-12.60;99.90
15107;DHT22;7654;45.308;-75.096;2023-12-07T05:11:00;-12.80;99.90
15107;DHT22;7654;45.308;-75.096;2023-12-07T05:13:32;-12.80;99.90
15107;DHT22;7654;45.308;-75.096;2023-12-07T05:16:04;-12.80;99.90
15107;DHT22;7654;45.308;-75.096;2023-12-07T05:18:34;-12.90;99.90
15107;DHT22;7654;45.308;-75.096;2023-12-07T05:21:05;-13.00;99.90
15107;DHT22;7654;45.308;-75.096;2023-12-07T05:23:36;-13.10;99.90
15107;DHT22;7654;45.308;-75.096;2023-12-07T05:26:06;-13.20;99.90
15107;DHT22;7654;45.308;-75.096;2023-12-07T05:28:39;-13.20;99.90
15107;DHT22;7654;45.308;-75.096;2023-12-07T05:31:15;-13.30;99.90
15107;DHT22;7654;45.308;-75.096;2023-12-07T05:33:45;-13.40;99.90
15107;DHT22;7654;45.308;-75.096;2023-12-07T05:36:16;-13.40;99.90
15107;DHT22;7654;45.308;-75.096;2023-12-07T05:38:46;-13.40;99.90
15107;DHT22;7654;45.308;-75.096;2023-12-07T05:41:17;-13.40;99.90
15107;DHT22;7654;45.308;-75.096;2023-12-07T05:43:48;-13.60;99.90
15107;DHT22;7654;45.308;-75.096;2023-12-07T05:46:19;-13.60;99.90
15107;DHT22;7654;45.308;-75.096;2023-12-07T05:48:49;-13.70;99.90
15107;DHT22;7654;45.308;-75.096;2023-12-07T05:51:23;-13.80;99.90
15107;DHT22;7654;45.308;-75.096;2023-12-07T05:53:54;-13.80;99.90
15107;DHT22;7654;45.308;-75.096;2023-12-07T05:56:24;-13.80;99.90
15107;DHT22;7654;45.308;-75.096;2023-12-07T05:58:56;-13.80;99.90
15107;DHT22;7654;45.308;-75.096;2023-12-07T06:01:26;-13.80;99.90
15107;DHT22;7654;45.308;-75.096;2023-12-07T06:03:57;-13.90;99.90
15107;DHT22;7654;45.308;-75.096;2023-12-07T06:06:27;-14.10;99.90
15107;DHT22;7654;45.308;-75.096;2023-12-07T06:08:58;-14.20;99.90
15107;DHT22;7654;45.308;-75.096;2023-12-07T06:11:28;-14.30;99.90
15107;DHT22;7654;45.308;-75.096;2023-12-07T06:14:01;-14.30;99.90
15107;DHT22;7654;45.308;-75.096;2023-12-07T06:16:31;-14.40;99.90
15107;DHT22;7654;45.308;-75.096;2023-12-07T06:19:02;-14.40;99.90
15107;DHT22;7654;45.308;-75.096;2023-12-07T06:21:32;-14.40;99.90
15107;DHT22;7654;45.308;-75.096;2023-12-07T06:24:03;-14.40;99.90
15107;DHT22;7654;45.308;-75.096;2023-12-07T06:26:33;-14.40;99.90
15107;DHT22;7654;45.308;-75.096;2023-12-07T06:29:05;-14.40;99.90
15107;DHT22;7654;45.308;-75.096;2023-12-07T06:31:37;-14.40;99.90
15107;DHT22;7654;45.308;-75.096;2023-12-07T06:34:12;-14.30;99.90
15107;DHT22;7654;45.308;-75.096;2023-12-07T06:36:43;-14.40;99.90
15107;DHT22;7654;45.308;-75.096;2023-12-07T06:39:13;-14.40;99.90
15107;DHT22;7654;45.308;-75.096;2023-12-07T06:41:43;-14.40;99.90
15107;DHT22;7654;45.308;-75.096;2023-12-07T06:44:15;-14.40;99.90
15107;DHT22;7654;45.308;-75.096;2023-12-07T06:46:46;-14.40;99.90
15107;DHT22;7654;45.308;-75.096;2023-12-07T06:49:16;-14.40;99.90
15107;DHT22;7654;45.308;-75.096;2023-12-07T06:51:47;-14.40;99.90
15107;DHT22;7654;45.308;-75.096;2023-12-07T06:54:17;-14.40;99.90
15107;DHT22;7654;45.308;-75.096;2023-12-07T06:56:47;-14.40;99.90
15107;DHT22;7654;45.308;-75.096;2023-12-07T06:59:19;-14.50;99.90
15107;DHT22;7654;45.308;-75.096;2023-12-07T07:01:50;-14.60;99.90
15107;DHT22;7654;45.308;-75.096;2023-12-07T07:04:20;-14.70;99.90
15107;DHT22;7654;45.308;-75.096;2023-12-07T07:06:51;-14.80;99.90
15107;DHT22;7654;45.308;-75.096;2023-12-07T07:09:21;-14.80;99.90
15107;DHT22;7654;45.308;-75.096;2023-12-07T07:11:52;-14.80;99.90
15107;DHT22;7654;45.308;-75.096;2023-12-07T07:14:24;-14.90;99.90
15107;DHT22;7654;45.308;-75.096;2023-12-07T07:16:54;-15.00;99.90
15107;DHT22;7654;45.308;-75.096;2023-12-07T07:19:25;-15.10;99.90
15107;DHT22;7654;45.308;-75.096;2023-12-07T07:21:55;-15.20;99.90
15107;DHT22;7654;45.308;-75.096;2023-12-07T07:24:25;-15.20;99.90
15107;DHT22;7654;45.308;-75.096;2023-12-07T07:26:56;-15.20;99.90
15107;DHT22;7654;45.308;-75.096;2023-12-07T07:29:28;-15.10;99.90
15107;DHT22;7654;45.308;-75.096;2023-12-07T07:31:58;-14.90;99.90
15107;DHT22;7654;45.308;-75.096;2023-12-07T07:34:29;-14.70;99.90
15107;DHT22;7654;45.308;-75.096;2023-12-07T07:36:59;-14.50;99.90
15107;DHT22;7654;45.308;-75.096;2023-12-07T07:39:30;-14.50;99.90
15107;DHT22;7654;45.308;-75.096;2023-12-07T07:42:00;-14.50;99.90
15107;DHT22;7654;45.308;-75.096;2023-12-07T07:44:32;-14.40;99.90
15107;DHT22;7654;45.308;-75.096;2023-12-07T07:47:02;-14.40;99.90
15107;DHT22;7654;45.308;-75.096;2023-12-07T07:49:33;-14.50;99.90
15107;DHT22;7654;45.308;-75.096;2023-12-07T07:52:03;-14.50;99.90
15107;DHT22;7654;45.308;-75.096;2023-12-07T07:54:34;-14.60;99.90
15107;DHT22;7654;45.308;-75.096;2023-12-07T07:57:05;-14.60;99.90
15107;DHT22;7654;45.308;-75.096;2023-12-07T07:59:37;-14.70;99.90
15107;DHT22;7654;45.308;-75.096;2023-12-07T08:02:07;-14.80;99.90
15107;DHT22;7654;45.308;-75.096;2023-12-07T08:04:38;-14.90;99.90
15107;DHT22;7654;45.308;-75.096;2023-12-07T08:07:08;-15.00;99.90
15107;DHT22;7654;45.308;-75.096;2023-12-07T08:09:39;-14.90;99.90
15107;DHT22;7654;45.308;-75.096;2023-12-07T08:12:09;-14.90;99.90
15107;DHT22;7654;45.308;-75.096;2023-12-07T08:14:41;-14.90;99.90
15107;DHT22;7654;45.308;-75.096;2023-12-07T08:17:14;-14.80;99.90
15107;DHT22;7654;45.308;-75.096;2023-12-07T08:19:44;-14.80;99.90
15107;DHT22;7654;45.308;-75.096;2023-12-07T08:22:14;-14.70;99.90
15107;DHT22;7654;45.308;-75.096;2023-12-07T08:24:46;-14.70;99.90
15107;DHT22;7654;45.308;-75.096;2023-12-07T08:27:31;-14.70;99.90
15107;DHT22;7654;45.308;-75.096;2023-12-07T08:30:04;-14.60;99.90
15107;DHT22;7654;45.308;-75.096;2023-12-07T08:32:34;-14.60;99.90
15107;DHT22;7654;45.308;-75.096;2023-12-07T08:35:06;-14.50;99.90
15107;DHT22;7654;45.308;-75.096;2023-12-07T08:37:38;-14.40;99.90
15107;DHT22;7654;45.308;-75.096;2023-12-07T08:40:09;-14.30;99.90
15107;DHT22;7654;45.308;-75.096;2023-12-07T08:42:46;-14.20;99.90
15107;DHT22;7654;45.308;-75.096;2023-12-07T08:45:21;-14.20;99.90
15107;DHT22;7654;45.308;-75.096;2023-12-07T08:47:52;-14.20;99.90
15107;DHT22;7654;45.308;-75.096;2023-12-07T08:50:22;-14.10;99.90
15107;DHT22;7654;45.308;-75.096;2023-12-07T08:52:52;-14.00;99.90
15107;DHT22;7654;45.308;-75.096;2023-12-07T08:55:31;-14.00;99.90
15107;DHT22;7654;45.308;-75.096;2023-12-07T08:58:01;-13.90;99.90
15107;DHT22;7654;45.308;-75.096;2023-12-07T09:00:34;-13.80;99.90
15107;DHT22;7654;45.308;-75.096;2023-12-07T09:03:04;-13.70;99.90
15107;DHT22;7654;45.308;-75.096;2023-12-07T09:05:35;-13.70;99.90
15107;DHT22;7654;45.308;-75.096;2023-12-07T09:08:06;-13.60;99.90
15107;DHT22;7654;45.308;-75.096;2023-12-07T09:10:36;-13.60;99.90
15107;DHT22;7654;45.308;-75.096;2023-12-07T09:13:07;-13.50;99.90
15107;DHT22;7654;45.308;-75.096;2023-12-07T09:15:39;-13.50;99.90
15107;DHT22;7654;45.308;-75.096;2023-12-07T09:18:10;-13.40;99.90
15107;DHT22;7654;45.308;-75.096;2023-12-07T09:20:41;-13.40;99.90
15107;DHT22;7654;45.308;-75.096;2023-12-07T09:23:14;-13.30;99.90
15107;DHT22;7654;45.308;-75.096;2023-12-07T09:25:45;-13.30;99.90
15107;DHT22;7654;45.308;-75.096;2023-12-07T09:28:15;-13.20;99.90
15107;DHT22;7654;45.308;-75.096;2023-12-07T09:30:48;-13.20;99.90
15107;DHT22;7654;45.308;-75.096;2023-12-07T09:33:18;-13.10;99.90
15107;DHT22;7654;45.308;-75.096;2023-12-07T09:35:49;-13.10;99.90
15107;DHT22;7654;45.308;-75.096;2023-12-07T09:38:19;-13.00;99.90
15107;DHT22;7654;45.308;-75.096;2023-12-07T09:40:53;-13.00;99.90
15107;DHT22;7654;45.308;-75.096;2023-12-07T09:43:23;-12.90;99.90
15107;DHT22;7654;45.308;-75.096;2023-12-07T09:45:56;-12.90;99.90
15107;DHT22;7654;45.308;-75.096;2023-12-07T09:48:28;-12.80;99.90
15107;DHT22;7654;45.308;-75.096;2023-12-07T09:51:00;-12.80;99.90
15107;DHT22;7654;45.308;-75.096;2023-12-07T09:53:32;-12.70;99.90
15107;DHT22;7654;45.308;-75.096;2023-12-07T09:56:04;-12.60;99.90
15107;DHT22;7654;45.308;-75.096;2023-12-07T09:58:34;-12.50;99.90
15107;DHT22;7654;45.308;-75.096;2023-12-07T10:01:10;-12.50;99.90
15107;DHT22;7654;45.308;-75.096;2023-12-07T10:03:43;-12.40;99.90
15107;DHT22;7654;45.308;-75.096;2023-12-07T10:06:15;-12.40;99.90
15107;DHT22;7654;45.308;-75.096;2023-12-07T10:08:46;-12.40;99.90
15107;DHT22;7654;45.308;-75.096;2023-12-07T10:11:16;-12.30;99.90
15107;DHT22;7654;45.308;-75.096;2023-12-07T10:13:46;-12.30;99.90
15107;DHT22;7654;45.308;-75.096;2023-12-07T10:16:18;-12.30;99.90
15107;DHT22;7654;45.308;-75.096;2023-12-07T10:18:49;-12.30;99.90
15107;DHT22;7654;45.308;-75.096;2023-12-07T10:21:31;-12.30;99.90
15107;DHT22;7654;45.308;-75.096;2023-12-07T10:24:02;-12.20;99.90
15107;DHT22;7654;45.308;-75.096;2023-12-07T10:26:33;-12.20;99.90
15107;DHT22;7654;45.308;-75.096;2023-12-07T10:29:05;-12.20;99.90
15107;DHT22;7654;45.308;-75.096;2023-12-07T10:31:45;-12.20;99.90
15107;DHT22;7654;45.308;-75.096;2023-12-07T10:34:18;-12.30;99.90
15107;DHT22;7654;45.308;-75.096;2023-12-07T10:36:49;-12.30;99.90
15107;DHT22;7654;45.308;-75.096;2023-12-07T10:39:21;-12.30;99.90
15107;DHT22;7654;45.308;-75.096;2023-12-07T10:42:02;-12.30;99.90
15107;DHT22;7654;45.308;-75.096;2023-12-07T10:44:40;-12.30;99.90
15107;DHT22;7654;45.308;-75.096;2023-12-07T10:47:12;-12.30;99.90
15107;DHT22;7654;45.308;-75.096;2023-12-07T10:49:44;-12.30;99.90
15107;DHT22;7654;45.308;-75.096;2023-12-07T10:52:18;-12.30;99.90
15107;DHT22;7654;45.308;-75.096;2023-12-07T10:54:54;-12.20;99.90
15107;DHT22;7654;45.308;-75.096;2023-12-07T10:57:27;-12.20;99.90
15107;DHT22;7654;45.308;-75.096;2023-12-07T11:00:00;-12.10;99.90
15107;DHT22;7654;45.308;-75.096;2023-12-07T11:02:35;-12.10;99.90
15107;DHT22;7654;45.308;-75.096;2023-12-07T11:05:07;-12.10;99.90
15107;DHT22;7654;45.308;-75.096;2023-12-07T11:07:50;-12.20;99.90
15107;DHT22;7654;45.308;-75.096;2023-12-07T11:10:25;-12.10;99.90
15107;DHT22;7654;45.308;-75.096;2023-12-07T11:13:05;-12.10;99.90
15107;DHT22;7654;45.308;-75.096;2023-12-07T11:15:38;-12.10;99.90
15107;DHT22;7654;45.308;-75.096;2023-12-07T11:18:11;-12.10;99.90
15107;DHT22;7654;45.308;-75.096;2023-12-07T11:20:43;-12.10;99.90
15107;DHT22;7654;45.308;-75.096;2023-12-07T11:23:16;-12.10;99.90
15107;DHT22;7654;45.308;-75.096;2023-12-07T11:25:48;-12.10;99.90
15107;DHT22;7654;45.308;-75.096;2023-12-07T11:28:18;-12.10;99.90
15107;DHT22;7654;45.308;-75.096;2023-12-07T11:31:05;-12.10;99.90
15107;DHT22;7654;45.308;-75.096;2023-12-07T11:33:40;-12.10;99.90
15107;DHT22;7654;45.308;-75.096;2023-12-07T11:36:12;-12.10;99.90
15107;DHT22;7654;45.308;-75.096;2023-12-07T11:39:15;-12.20;99.90
15107;DHT22;7654;45.308;-75.096;2023-12-07T11:41:56;-12.20;99.90
15107;DHT22;7654;45.308;-75.096;2023-12-07T11:44:38;-12.20;99.90
15107;DHT22;7654;45.308;-75.096;2023-12-07T11:47:09;-12.20;99.90
15107;DHT22;7654;45.308;-75.096;2023-12-07T11:49:41;-12.20;99.90
15107;DHT22;7654;45.308;-75.096;2023-12-07T11:52:15;-12.20;99.90
15107;DHT22;7654;45.308;-75.096;2023-12-07T11:54:46;-12.30;99.90
15107;DHT22;7654;45.308;-75.096;2023-12-07T11:57:17;-12.30;99.90
15107;DHT22;7654;45.308;-75.096;2023-12-07T11:59:47;-12.30;99.90
15107;DHT22;7654;45.308;-75.096;2023-12-07T12:02:18;-12.30;99.90
15107;DHT22;7654;45.308;-75.096;2023-12-07T12:04:50;-12.30;99.90
15107;DHT22;7654;45.308;-75.096;2023-12-07T12:07:20;-12.30;99.90
15107;DHT22;7654;45.308;-75.096;2023-12-07T12:09:54;-12.20;99.90
15107;DHT22;7654;45.308;-75.096;2023-12-07T12:12:26;-12.20;99.90
15107;DHT22;7654;45.308;-75.096;2023-12-07T12:14:56;-12.20;99.90
15107;DHT22;7654;45.308;-75.096;2023-12-07T12:17:27;-12.10;99.90
15107;DHT22;7654;45.308;-75.096;2023-12-07T12:19:59;-12.10;99.90
15107;DHT22;7654;45.308;-75.096;2023-12-07T12:22:32;-12.10;99.90
15107;DHT22;7654;45.308;-75.096;2023-12-07T12:25:03;-12.00;99.90
15107;DHT22;7654;45.308;-75.096;2023-12-07T12:27:33;-12.00;99.90
15107;DHT22;7654;45.308;-75.096;2023-12-07T12:30:06;-12.00;99.90
15107;DHT22;7654;45.308;-75.096;2023-12-07T12:32:43;-11.90;99.90
15107;DHT22;7654;45.308;-75.096;2023-12-07T12:35:15;-11.90;99.90
15107;DHT22;7654;45.308;-75.096;2023-12-07T12:37:46;-11.90;99.90
15107;DHT22;7654;45.308;-75.096;2023-12-07T12:40:19;-11.90;99.90
15107;DHT22;7654;45.308;-75.096;2023-12-07T12:42:50;-11.80;99.90
15107;DHT22;7654;45.308;-75.096;2023-12-07T12:45:24;-11.80;99.90
15107;DHT22;7654;45.308;-75.096;2023-12-07T12:47:54;-11.70;99.90
15107;DHT22;7654;45.308;-75.096;2023-12-07T12:50:38;-11.70;99.90
15107;DHT22;7654;45.308;-75.096;2023-12-07T12:53:10;-11.60;99.90
15107;DHT22;7654;45.308;-75.096;2023-12-07T12:55:42;-11.50;99.90
15107;DHT22;7654;45.308;-75.096;2023-12-07T12:58:12;-11.50;99.90
15107;DHT22;7654;45.308;-75.096;2023-12-07T13:00:45;-11.50;99.90
15107;DHT22;7654;45.308;-75.096;2023-12-07T13:03:16;-11.40;99.90
15107;DHT22;7654;45.308;-75.096;2023-12-07T13:05:49;-11.40;99.90
15107;DHT22;7654;45.308;-75.096;2023-12-07T13:08:19;-11.30;99.90
15107;DHT22;7654;45.308;-75.096;2023-12-07T13:10:52;-11.20;99.90
15107;DHT22;7654;45.308;-75.096;2023-12-07T13:13:22;-11.20;99.90
15107;DHT22;7654;45.308;-75.096;2023-12-07T13:15:53;-11.30;99.90
15107;DHT22;7654;45.308;-75.096;2023-12-07T13:18:23;-11.20;99.90
15107;DHT22;7654;45.308;-75.096;2023-12-07T13:20:56;-11.20;99.90
15107;DHT22;7654;45.308;-75.096;2023-12-07T13:23:27;-11.20;99.90
15107;DHT22;7654;45.308;-75.096;2023-12-07T13:25:58;-11.10;99.90
15107;DHT22;7654;45.308;-75.096;2023-12-07T13:28:28;-10.90;99.90
15107;DHT22;7654;45.308;-75.096;2023-12-07T13:30:58;-10.80;99.90
15107;DHT22;7654;45.308;-75.096;2023-12-07T13:33:29;-10.70;99.90
15107;DHT22;7654;45.308;-75.096;2023-12-07T13:36:11;-10.70;99.90
15107;DHT22;7654;45.308;-75.096;2023-12-07T13:38:42;-10.60;99.90
15107;DHT22;7654;45.308;-75.096;2023-12-07T13:41:13;-10.50;99.90
15107;DHT22;7654;45.308;-75.096;2023-12-07T13:43:43;-10.40;99.90
15107;DHT22;7654;45.308;-75.096;2023-12-07T13:46:17;-10.30;99.90
15107;DHT22;7654;45.308;-75.096;2023-12-07T13:48:48;-10.20;99.90
15107;DHT22;7654;45.308;-75.096;2023-12-07T13:51:21;-10.40;99.90
15107;DHT22;7654;45.308;-75.096;2023-12-07T13:53:52;-10.20;99.90
15107;DHT22;7654;45.308;-75.096;2023-12-07T13:56:28;-10.00;99.90
15107;DHT22;7654;45.308;-75.096;2023-12-07T13:58:58;-10.00;99.90
15107;DHT22;7654;45.308;-75.096;2023-12-07T14:01:28;-9.70;99.90
15107;DHT22;7654;45.308;-75.096;2023-12-07T14:04:00;-9.70;99.90
15107;DHT22;7654;45.308;-75.096;2023-12-07T14:06:32;-9.50;99.90
15107;DHT22;7654;45.308;-75.096;2023-12-07T14:09:04;-9.30;99.90
15107;DHT22;7654;45.308;-75.096;2023-12-07T14:11:34;-9.30;99.90
15107;DHT22;7654;45.308;-75.096;2023-12-07T14:14:05;-9.40;99.90
15107;DHT22;7654;45.308;-75.096;2023-12-07T14:16:35;-9.20;99.90
15107;DHT22;7654;45.308;-75.096;2023-12-07T14:19:27;-9.00;99.90
15107;DHT22;7654;45.308;-75.096;2023-12-07T14:22:00;-9.00;99.90
15107;DHT22;7654;45.308;-75.096;2023-12-07T14:24:35;-9.10;99.90
15107;DHT22;7654;45.308;-75.096;2023-12-07T14:27:06;-8.90;99.90
15107;DHT22;7654;45.308;-75.096;2023-12-07T14:29:38;-8.80;99.90
15107;DHT22;7654;45.308;-75.096;2023-12-07T14:32:14;-8.60;99.90
15107;DHT22;7654;45.308;-75.096;2023-12-07T14:34:44;-8.50;99.90
15107;DHT22;7654;45.308;-75.096;2023-12-07T14:37:16;-8.30;99.90
15107;DHT22;7654;45.308;-75.096;2023-12-07T14:39:47;-8.10;99.90
15107;DHT22;7654;45.308;-75.096;2023-12-07T14:42:17;-8.10;99.90
15107;DHT22;7654;45.308;-75.096;2023-12-07T14:44:48;-8.00;99.90
15107;DHT22;7654;45.308;-75.096;2023-12-07T14:47:18;-8.00;99.90
15107;DHT22;7654;45.308;-75.096;2023-12-07T14:49:49;-8.00;99.90
15107;DHT22;7654;45.308;-75.096;2023-12-07T14:52:21;-8.00;99.90
15107;DHT22;7654;45.308;-75.096;2023-12-07T14:54:53;-8.00;99.90
15107;DHT22;7654;45.308;-75.096;2023-12-07T14:57:23;-8.10;99.90
15107;DHT22;7654;45.308;-75.096;2023-12-07T14:59:53;-7.90;99.90
15107;DHT22;7654;45.308;-75.096;2023-12-07T15:02:26;-7.70;99.90
15107;DHT22;7654;45.308;-75.096;2023-12-07T15:04:57;-7.80;99.90
15107;DHT22;7654;45.308;-75.096;2023-12-07T15:07:29;-7.60;99.90
15107;DHT22;7654;45.308;-75.096;2023-12-07T15:10:00;-7.40;99.90
15107;DHT22;7654;45.308;-75.096;2023-12-07T15:12:31;-7.90;99.90
15107;DHT22;7654;45.308;-75.096;2023-12-07T15:15:02;-7.90;99.90
15107;DHT22;7654;45.308;-75.096;2023-12-07T15:17:34;-7.60;99.90
15107;DHT22;7654;45.308;-75.096;2023-12-07T15:20:05;-7.40;99.90
15107;DHT22;7654;45.308;-75.096;2023-12-07T15:22:38;-7.40;99.90
15107;DHT22;7654;45.308;-75.096;2023-12-07T15:25:10;-7.10;99.90
15107;DHT22;7654;45.308;-75.096;2023-12-07T15:27:41;-7.30;99.90
15107;DHT22;7654;45.308;-75.096;2023-12-07T15:30:15;-7.40;99.90
15107;DHT22;7654;45.308;-75.096;2023-12-07T15:32:45;-7.50;99.90
15107;DHT22;7654;45.308;-75.096;2023-12-07T15:35:16;-7.10;99.90